createdAt,value
2017-10-18T00:00:30.209Z,31.73
2017-10-18T00:01:35.981Z,31.10
2017-10-18T00:02:41.765Z,31.37
2017-10-18T00:03:48.109Z,30.60
2017-10-18T00:04:55.385Z,30.42
2017-10-18T00:06:01.135Z,29.70
2017-10-18T00:07:06.709Z,29.55
2017-10-18T00:08:12.496Z,29.98
2017-10-18T00:09:18.267Z,29.30
2017-10-18T00:10:24.801Z,29.48
2017-10-18T00:11:30.566Z,28.92
2017-10-18T00:12:37.105Z,29.58
2017-10-18T00:13:42.897Z,30.20
2017-10-18T00:14:48.479Z,31.10
2017-10-18T00:15:53.931Z,30.27
2017-10-18T00:16:59.701Z,29.83
2017-10-18T00:18:05.481Z,28.87
2017-10-18T00:19:11.318Z,30.83
2017-10-18T00:20:16.893Z,29.85
2017-10-18T00:21:22.652Z,30.55
2017-10-18T00:22:29.184Z,29.92
2017-10-18T00:23:34.747Z,28.98
2017-10-18T00:24:40.519Z,29.50
2017-10-18T00:25:46.281Z,30.02
2017-10-18T00:26:52.045Z,28.40
2017-10-18T00:27:59.145Z,28.65
2017-10-18T00:29:05.675Z,29.23
2017-10-18T00:30:11.471Z,29.15
2017-10-18T00:31:17.251Z,29.98
2017-10-18T00:32:23.017Z,29.67
2017-10-18T00:33:28.593Z,30.20
2017-10-18T00:34:34.361Z,28.90
2017-10-18T00:35:40.226Z,29.92
2017-10-18T00:36:45.988Z,29.48
2017-10-18T00:37:51.761Z,29.73
2017-10-18T00:38:57.525Z,30.70
2017-10-18T00:40:03.334Z,30.85
2017-10-18T00:41:09.893Z,30.02
2017-10-18T00:42:16.421Z,30.52
2017-10-18T00:43:22.192Z,30.75
2017-10-18T00:44:28.708Z,29.25
2017-10-18T00:45:34.481Z,30.65
2017-10-18T00:46:41.068Z,29.17
2017-10-18T00:47:46.637Z,30.48
2017-10-18T00:48:52.404Z,29.00
2017-10-18T00:49:58.182Z,28.70
2017-10-18T00:51:04.546Z,30.73
2017-10-18T00:52:10.334Z,29.60
2017-10-18T00:53:16.091Z,28.50
2017-10-18T00:54:22.624Z,28.45
2017-10-18T00:55:28.431Z,29.60
2017-10-18T00:56:34.181Z,29.12
2017-10-18T00:57:40.715Z,30.42
2017-10-18T00:58:47.292Z,32.03
2017-10-18T00:59:52.865Z,30.50
2017-10-18T01:00:58.627Z,29.02
2017-10-18T01:02:05.165Z,29.60
2017-10-18T01:03:10.969Z,29.58
2017-10-18T01:04:16.747Z,32.35
2017-10-18T01:05:22.518Z,32.30
2017-10-18T01:06:28.276Z,31.42
2017-10-18T01:07:34.800Z,31.67
2017-10-18T01:08:40.601Z,30.70
2017-10-18T01:09:46.347Z,31.00
2017-10-18T01:10:52.123Z,31.58
2017-10-18T01:11:57.888Z,30.50
2017-10-18T01:13:03.777Z,30.92
2017-10-18T01:14:09.555Z,30.48
2017-10-18T01:15:15.310Z,31.05
2017-10-18T01:16:21.068Z,30.45
2017-10-18T01:17:27.412Z,29.12
2017-10-18T01:18:33.176Z,28.67
2017-10-18T01:19:38.983Z,31.48
2017-10-18T01:20:44.756Z,30.15
2017-10-18T01:21:50.676Z,31.17
2017-10-18T01:22:57.209Z,28.38
2017-10-18T01:24:02.971Z,29.17
2017-10-18T01:25:08.794Z,32.53
2017-10-18T01:26:14.214Z,29.25
2017-10-18T01:27:20.532Z,29.17
2017-10-18T01:28:27.058Z,28.90
2017-10-18T01:29:32.812Z,29.87
2017-10-18T01:30:38.604Z,29.35
2017-10-18T01:31:44.365Z,32.85
2017-10-18T01:32:50.143Z,34.13
2017-10-18T01:33:55.891Z,32.67
2017-10-18T01:35:02.425Z,34.50
2017-10-18T01:36:08.233Z,31.98
2017-10-18T01:37:13.986Z,30.05
2017-10-18T01:38:19.748Z,29.20
2017-10-18T01:39:25.516Z,29.65
2017-10-18T01:40:31.274Z,30.17
2017-10-18T01:41:37.820Z,28.80
2017-10-18T01:42:43.593Z,29.20
2017-10-18T01:43:49.348Z,30.05
2017-10-18T01:44:55.130Z,28.95
2017-10-18T01:46:00.892Z,29.45
2017-10-18T01:47:07.447Z,29.90
2017-10-18T01:48:13.992Z,29.52
2017-10-18T01:49:19.765Z,32.22
2017-10-18T01:50:26.288Z,31.65
2017-10-18T01:51:32.386Z,32.72
2017-10-18T01:52:38.173Z,31.60
2017-10-18T01:53:43.943Z,31.98
2017-10-18T01:54:50.464Z,34.80
2017-10-18T01:55:56.228Z,33.28
2017-10-18T01:57:01.997Z,33.67
2017-10-18T01:58:08.549Z,33.42
2017-10-18T01:59:15.085Z,32.80
2017-10-18T02:00:21.612Z,34.75
2017-10-18T02:01:27.373Z,33.10
2017-10-18T02:02:33.141Z,32.53
2017-10-18T02:03:38.926Z,31.77
2017-10-18T02:04:44.679Z,31.83
2017-10-18T02:05:50.450Z,32.08
2017-10-18T02:06:56.205Z,31.90
2017-10-18T02:08:01.984Z,30.20
2017-10-18T02:09:07.760Z,29.85
2017-10-18T02:10:13.539Z,31.10
2017-10-18T02:11:19.292Z,28.45
2017-10-18T02:12:25.650Z,28.30
2017-10-18T02:13:31.436Z,26.70
2017-10-18T02:14:37.228Z,25.92
2017-10-18T02:15:43.751Z,24.95
2017-10-18T02:16:49.535Z,24.40
2017-10-18T02:17:56.062Z,24.30
2017-10-18T02:19:01.839Z,25.73
2017-10-18T02:20:08.394Z,25.33
2017-10-18T02:21:14.921Z,26.60
2017-10-18T02:22:20.689Z,24.70
2017-10-18T02:23:27.219Z,25.58
2017-10-18T02:24:32.980Z,24.92
2017-10-18T02:25:38.772Z,25.35
2017-10-18T02:26:44.547Z,28.40
2017-10-18T02:27:50.303Z,23.50
2017-10-18T02:28:56.847Z,25.62
2017-10-18T02:30:02.626Z,23.70
2017-10-18T02:31:09.192Z,24.35
2017-10-18T02:32:15.717Z,25.02
2017-10-18T02:33:21.483Z,24.42
2017-10-18T02:34:28.014Z,25.52
2017-10-18T02:35:33.792Z,24.00
2017-10-18T02:36:40.151Z,23.60
2017-10-18T02:37:45.915Z,24.17
2017-10-18T02:38:51.685Z,24.17
2017-10-18T02:39:57.544Z,24.63
2017-10-18T02:41:03.331Z,27.48
2017-10-18T02:42:09.121Z,25.80
2017-10-18T02:43:16.045Z,27.52
2017-10-18T02:44:21.809Z,26.75
2017-10-18T02:45:27.588Z,29.42
2017-10-18T02:46:34.129Z,27.37
2017-10-18T02:47:39.926Z,27.98
2017-10-18T02:48:45.336Z,26.10
2017-10-18T02:49:51.864Z,25.98
2017-10-18T02:50:57.646Z,24.90
2017-10-18T02:52:04.169Z,26.05
2017-10-18T02:53:09.967Z,26.58
2017-10-18T02:54:15.736Z,24.87
2017-10-18T02:55:21.499Z,25.83
2017-10-18T02:56:27.269Z,26.83
2017-10-18T02:57:33.790Z,28.40
2017-10-18T02:58:39.572Z,27.48
2017-10-18T02:59:45.925Z,28.90
2017-10-18T03:00:51.948Z,27.33
2017-10-18T03:01:57.714Z,28.48
2017-10-18T03:03:04.233Z,26.17
2017-10-18T03:04:10.018Z,28.08
2017-10-18T03:05:16.545Z,28.00
2017-10-18T03:06:22.309Z,26.02
2017-10-18T03:08:46.780Z,28.65
2017-10-18T03:09:54.073Z,28.65
2017-10-18T03:11:00.612Z,31.15
2017-10-18T03:12:07.028Z,28.83
2017-10-18T03:13:12.780Z,28.98
2017-10-18T03:15:22.680Z,29.48
2017-10-18T03:16:29.219Z,30.80
2017-10-18T03:17:34.905Z,31.90
2017-10-18T03:18:40.666Z,31.08
2017-10-18T03:19:46.439Z,30.52
2017-10-18T03:20:52.215Z,29.40
2017-10-18T03:21:58.733Z,29.50
2017-10-18T03:23:04.305Z,30.50
2017-10-18T03:24:10.837Z,31.45
2017-10-18T03:25:16.666Z,29.65
2017-10-18T03:26:22.454Z,29.77
2017-10-18T03:27:28.444Z,30.12
2017-10-18T03:28:33.833Z,31.80
2017-10-18T03:29:39.664Z,30.77
2017-10-18T03:30:45.849Z,30.23
2017-10-18T03:31:51.638Z,29.20
2017-10-18T03:32:57.057Z,30.02
2017-10-18T03:34:02.833Z,31.67
2017-10-18T03:35:09.425Z,31.20
2017-10-18T03:36:15.188Z,32.30
2017-10-18T03:37:20.975Z,32.03
2017-10-18T03:38:27.509Z,32.95
2017-10-18T03:39:33.264Z,30.12
2017-10-18T03:40:38.839Z,32.80
2017-10-18T03:41:44.593Z,32.15
2017-10-18T03:42:50.380Z,28.58
2017-10-18T03:43:57.645Z,29.75
2017-10-18T03:45:03.404Z,30.67
2017-10-18T03:46:09.160Z,30.40
2017-10-18T03:47:15.686Z,29.73
2017-10-18T03:48:21.464Z,29.35
2017-10-18T03:49:27.995Z,29.02
2017-10-18T03:50:33.766Z,26.60
2017-10-18T03:51:40.307Z,24.33
2017-10-18T03:52:46.069Z,23.45
2017-10-18T03:53:52.628Z,23.55
2017-10-18T03:54:59.161Z,24.42
2017-10-18T03:56:04.918Z,24.60
2017-10-18T03:57:10.712Z,24.75
2017-10-18T03:58:16.550Z,25.50
2017-10-18T03:59:22.328Z,25.77
2017-10-18T04:00:28.102Z,25.05
2017-10-18T04:01:33.871Z,26.45
2017-10-18T04:02:39.633Z,27.52
2017-10-18T04:03:45.405Z,26.55
2017-10-18T04:04:51.957Z,27.30
2017-10-18T04:05:57.715Z,25.60
2017-10-18T04:07:03.481Z,25.17
2017-10-18T04:08:10.008Z,26.50
2017-10-18T04:09:15.778Z,26.08
2017-10-18T04:10:22.165Z,27.50
2017-10-18T04:11:27.940Z,28.40
2017-10-18T04:12:33.697Z,28.95
2017-10-18T04:13:40.238Z,28.60
2017-10-18T04:14:45.995Z,27.90
2017-10-18T04:15:51.788Z,28.48
2017-10-18T04:16:57.553Z,29.30
2017-10-18T04:18:03.424Z,30.35
2017-10-18T04:19:09.188Z,31.30
2017-10-18T04:20:15.719Z,30.48
2017-10-18T04:21:21.617Z,31.77
2017-10-18T04:22:27.393Z,29.10
2017-10-18T04:23:33.241Z,31.87
2017-10-18T04:24:39.067Z,32.58
2017-10-18T04:25:44.826Z,33.00
2017-10-18T04:26:50.624Z,33.63
2017-10-18T04:27:56.385Z,35.65
2017-10-18T04:29:02.160Z,35.58
2017-10-18T04:30:08.202Z,35.15
2017-10-18T04:31:13.969Z,35.22
2017-10-18T04:32:20.520Z,36.83
2017-10-18T04:33:26.280Z,34.97
2017-10-18T04:34:32.812Z,33.72
2017-10-18T04:35:40.092Z,34.50
2017-10-18T04:36:45.873Z,33.40
2017-10-18T04:37:51.673Z,32.33
2017-10-18T04:38:58.200Z,32.60
2017-10-18T04:40:03.974Z,34.95
2017-10-18T04:41:09.739Z,34.50
2017-10-18T04:42:16.088Z,33.55
2017-10-18T04:43:22.648Z,32.97
2017-10-18T04:44:29.184Z,33.17
2017-10-18T04:45:34.981Z,32.75
2017-10-18T04:46:40.740Z,33.28
2017-10-18T04:47:46.325Z,34.95
2017-10-18T04:48:52.888Z,34.75
2017-10-18T04:49:59.417Z,33.45
2017-10-18T04:51:05.193Z,34.25
2017-10-18T04:52:11.722Z,35.42
2017-10-18T04:53:17.490Z,34.72
2017-10-18T04:54:24.047Z,35.83
2017-10-18T04:55:29.808Z,34.17
2017-10-18T04:56:36.342Z,36.92
2017-10-18T04:57:42.098Z,38.92
2017-10-18T04:58:48.633Z,38.30
2017-10-18T04:59:55.197Z,40.05
2017-10-18T05:01:00.952Z,39.55
2017-10-18T05:02:06.729Z,37.88
2017-10-18T05:03:12.496Z,38.92
2017-10-18T05:04:18.064Z,40.67
2017-10-18T05:05:23.904Z,42.65
2017-10-18T05:06:29.685Z,43.60
2017-10-18T05:07:35.455Z,41.88
2017-10-18T05:08:41.233Z,44.35
2017-10-18T05:09:47.273Z,43.97
2017-10-18T05:10:53.072Z,43.47
2017-10-18T05:11:58.856Z,43.40
2017-10-18T05:13:04.653Z,43.38
2017-10-18T05:14:10.429Z,43.33
2017-10-18T05:15:16.186Z,44.05
2017-10-18T05:16:21.985Z,45.58
2017-10-18T05:17:27.748Z,44.85
2017-10-18T05:18:33.526Z,46.92
2017-10-18T05:19:39.281Z,47.33
2017-10-18T05:20:45.468Z,47.17
2017-10-18T05:21:50.396Z,45.33
2017-10-18T05:22:56.158Z,45.85
2017-10-18T05:24:01.916Z,49.60
2017-10-18T05:25:07.708Z,48.10
2017-10-18T05:26:13.293Z,49.78
2017-10-18T05:27:19.088Z,51.67
2017-10-18T05:28:24.846Z,54.58
2017-10-18T05:29:30.616Z,51.75
2017-10-18T05:30:36.374Z,53.40
2017-10-18T05:31:42.704Z,52.00
2017-10-18T05:32:48.501Z,54.95
2017-10-18T05:33:54.285Z,54.20
2017-10-18T05:35:00.051Z,52.22
2017-10-18T05:36:06.589Z,54.67
2017-10-18T05:37:12.391Z,53.47
2017-10-18T05:38:18.172Z,56.15
2017-10-18T05:39:23.976Z,52.50
2017-10-18T05:40:29.732Z,54.85
2017-10-18T05:41:35.508Z,53.97
2017-10-18T05:42:41.277Z,51.00
2017-10-18T05:43:47.828Z,49.72
2017-10-18T05:44:54.364Z,50.05
2017-10-18T05:46:00.141Z,50.20
2017-10-18T05:47:06.518Z,50.15
2017-10-18T05:48:12.338Z,47.60
2017-10-18T05:49:18.884Z,48.78
2017-10-18T05:50:24.645Z,46.33
2017-10-18T05:51:31.008Z,48.40
2017-10-18T05:52:36.798Z,46.10
2017-10-18T05:53:42.564Z,45.90
2017-10-18T05:54:48.391Z,45.75
2017-10-18T05:55:53.954Z,46.72
2017-10-18T05:56:59.725Z,44.50
2017-10-18T05:58:06.336Z,45.42
2017-10-18T05:59:12.098Z,40.12
2017-10-18T06:00:17.876Z,38.42
2017-10-18T06:01:23.650Z,38.60
2017-10-18T06:02:29.416Z,36.95
2017-10-18T06:03:35.180Z,38.00
2017-10-18T06:04:41.700Z,36.10
2017-10-18T06:05:47.298Z,35.22
2017-10-18T06:06:52.876Z,34.25
2017-10-18T06:07:58.647Z,35.92
2017-10-18T06:09:04.042Z,34.15
2017-10-18T06:10:09.487Z,35.03
2017-10-18T06:11:15.263Z,34.38
2017-10-18T06:12:21.044Z,35.15
2017-10-18T06:13:26.971Z,37.15
2017-10-18T06:14:32.725Z,36.15
2017-10-18T06:15:38.220Z,36.53
2017-10-18T06:16:44.799Z,32.95
2017-10-18T06:17:50.395Z,33.80
2017-10-18T06:18:55.974Z,32.17
2017-10-18T06:20:02.230Z,33.95
2017-10-18T06:21:09.241Z,37.00
2017-10-18T06:22:15.045Z,34.13
2017-10-18T06:23:20.290Z,33.20
2017-10-18T06:24:25.861Z,32.90
2017-10-18T06:25:32.517Z,32.72
2017-10-18T06:26:38.351Z,33.20
2017-10-18T06:27:44.468Z,35.38
2017-10-18T06:28:50.366Z,35.85
2017-10-18T06:29:56.991Z,31.62
2017-10-18T06:31:02.819Z,30.42
2017-10-18T06:32:08.456Z,31.60
2017-10-18T06:33:14.267Z,28.67
2017-10-18T06:34:20.860Z,30.95
2017-10-18T06:35:26.846Z,31.33
2017-10-18T06:36:33.191Z,28.83
2017-10-18T06:37:38.949Z,30.45
2017-10-18T06:38:44.741Z,31.70
2017-10-18T06:39:50.579Z,29.10
2017-10-18T06:40:56.358Z,29.30
2017-10-18T06:42:02.151Z,29.48
2017-10-18T06:43:08.723Z,31.83
2017-10-18T06:44:14.511Z,31.17
2017-10-18T06:45:20.318Z,30.45
2017-10-18T06:46:26.110Z,31.58
2017-10-18T06:47:31.880Z,29.70
2017-10-18T06:48:38.446Z,30.33
2017-10-18T06:49:45.025Z,30.45
2017-10-18T06:50:50.776Z,30.62
2017-10-18T06:51:56.536Z,29.45
2017-10-18T06:53:02.295Z,32.70
2017-10-18T06:54:08.060Z,31.42
2017-10-18T06:55:14.616Z,30.52
2017-10-18T06:56:20.368Z,31.65
2017-10-18T06:57:26.896Z,31.25
2017-10-18T06:58:32.661Z,32.95
2017-10-18T06:59:39.188Z,32.30
2017-10-18T07:00:44.978Z,30.77
2017-10-18T07:01:51.504Z,36.65
2017-10-18T07:02:57.280Z,49.88
2017-10-18T07:04:03.812Z,63.72
2017-10-18T07:05:09.572Z,65.18
2017-10-18T07:06:16.144Z,61.50
2017-10-18T07:07:22.675Z,53.78
2017-10-18T07:08:28.437Z,44.95
2017-10-18T07:09:34.985Z,42.13
2017-10-18T07:10:40.741Z,42.17
2017-10-18T07:11:47.299Z,37.35
2017-10-18T07:12:53.848Z,35.42
2017-10-18T07:13:59.640Z,34.05
2017-10-18T07:15:05.402Z,33.10
2017-10-18T07:16:11.178Z,33.00
2017-10-18T07:17:17.734Z,33.28
2017-10-18T07:18:24.271Z,28.55
2017-10-18T07:19:30.036Z,29.00
2017-10-18T07:20:36.577Z,27.30
2017-10-18T07:21:42.334Z,27.05
2017-10-18T07:22:48.131Z,26.12
2017-10-18T07:23:53.892Z,29.23
2017-10-18T07:24:59.671Z,29.77
2017-10-18T07:26:06.196Z,26.15
2017-10-18T07:27:11.963Z,27.05
2017-10-18T07:28:17.770Z,26.70
2017-10-18T07:29:23.537Z,27.37
2017-10-18T07:30:29.311Z,27.67
2017-10-18T07:31:35.987Z,27.35
2017-10-18T07:32:41.931Z,28.30
2017-10-18T07:33:47.745Z,28.62
2017-10-18T07:34:53.503Z,30.08
2017-10-18T07:36:00.077Z,29.98
2017-10-18T07:37:06.075Z,30.45
2017-10-18T07:38:12.040Z,29.85
2017-10-18T07:39:18.469Z,29.20
2017-10-18T07:40:24.779Z,31.33
2017-10-18T07:41:30.912Z,29.48
2017-10-18T07:42:38.516Z,28.60
2017-10-18T07:43:44.567Z,30.12
2017-10-18T07:44:53.077Z,29.60
2017-10-18T07:45:59.104Z,29.83
2017-10-18T07:47:06.147Z,29.08
2017-10-18T07:48:13.012Z,30.48
2017-10-18T07:49:19.895Z,30.60
2017-10-18T07:50:26.170Z,30.35
2017-10-18T07:51:32.338Z,29.65
2017-10-18T07:52:38.593Z,30.33
2017-10-18T07:53:44.702Z,29.85
2017-10-18T07:54:51.603Z,32.85
2017-10-18T07:55:58.809Z,29.75
2017-10-18T07:57:04.692Z,32.25
2017-10-18T07:58:10.443Z,31.27
2017-10-18T07:59:17.057Z,29.12
2017-10-18T08:00:22.871Z,31.60
2017-10-18T08:01:28.770Z,29.58
2017-10-18T08:02:36.139Z,29.80
2017-10-18T08:03:41.969Z,28.73
2017-10-18T08:04:47.997Z,30.70
2017-10-18T08:05:53.900Z,29.40
2017-10-18T08:07:00.453Z,28.75
2017-10-18T08:08:06.712Z,29.65
2017-10-18T08:09:12.958Z,28.65
2017-10-18T08:10:18.722Z,28.40
2017-10-18T08:11:25.253Z,27.92
2017-10-18T08:12:30.798Z,28.35
2017-10-18T08:13:37.328Z,26.60
2017-10-18T08:14:43.096Z,27.80
2017-10-18T08:15:48.917Z,25.80
2017-10-18T08:16:54.687Z,26.50
2017-10-18T08:18:01.265Z,26.65
2017-10-18T08:19:06.912Z,27.33
2017-10-18T08:20:12.713Z,32.85
2017-10-18T08:21:18.476Z,28.30
2017-10-18T08:22:24.820Z,28.20
2017-10-18T08:23:30.621Z,25.80
2017-10-18T08:24:36.388Z,25.50
2017-10-18T08:25:41.482Z,27.87
2017-10-18T08:26:47.240Z,28.73
2017-10-18T08:27:53.012Z,29.33
2017-10-18T08:28:58.893Z,27.02
2017-10-18T08:30:04.816Z,28.23
2017-10-18T08:31:11.456Z,27.15
2017-10-18T08:32:17.809Z,29.15
2017-10-18T08:33:24.489Z,27.55
2017-10-18T08:34:31.216Z,27.45
2017-10-18T08:35:37.070Z,26.17
2017-10-18T08:36:43.110Z,27.45
2017-10-18T08:37:49.836Z,27.67
2017-10-18T08:38:55.773Z,26.70
2017-10-18T08:40:01.835Z,27.40
2017-10-18T08:41:07.372Z,26.02
2017-10-18T08:42:13.315Z,28.70
2017-10-18T08:43:19.369Z,25.45
2017-10-18T08:44:25.387Z,25.50
2017-10-18T08:45:30.987Z,25.30
2017-10-18T08:46:37.483Z,25.75
2017-10-18T08:47:43.663Z,26.90
2017-10-18T08:48:49.434Z,25.55
2017-10-18T08:49:55.188Z,26.30
2017-10-18T08:51:00.637Z,25.65
2017-10-18T08:52:07.167Z,27.08
2017-10-18T08:53:12.921Z,25.25
2017-10-18T08:54:18.697Z,27.13
2017-10-18T08:55:25.361Z,26.00
2017-10-18T08:56:31.924Z,28.23
2017-10-18T08:57:38.472Z,26.00
2017-10-18T08:58:45.053Z,29.15
2017-10-18T08:59:50.473Z,27.25
2017-10-18T09:00:56.468Z,28.73
2017-10-18T09:02:01.915Z,26.95
2017-10-18T09:03:07.114Z,27.05
2017-10-18T09:04:12.889Z,27.35
2017-10-18T09:05:18.457Z,27.08
2017-10-18T09:06:25.046Z,27.60
2017-10-18T09:07:30.875Z,28.87
2017-10-18T09:08:37.389Z,28.30
2017-10-18T09:09:42.962Z,28.95
2017-10-18T09:10:49.313Z,29.20
2017-10-18T09:11:55.851Z,28.50
2017-10-18T09:13:01.645Z,29.40
2017-10-18T09:14:07.243Z,30.52
2017-10-18T09:15:12.991Z,29.70
2017-10-18T09:16:19.535Z,28.48
2017-10-18T09:17:25.291Z,30.45
2017-10-18T09:18:31.076Z,28.00
2017-10-18T09:19:36.838Z,29.17
2017-10-18T09:20:42.614Z,29.15
2017-10-18T09:21:48.368Z,29.25
2017-10-18T09:22:54.902Z,31.20
2017-10-18T09:24:01.091Z,29.33
2017-10-18T09:25:07.613Z,29.70
2017-10-18T09:26:14.144Z,29.45
2017-10-18T09:27:19.913Z,28.77
2017-10-18T09:28:25.678Z,30.88
2017-10-18T09:29:32.228Z,29.67
2017-10-18T09:30:37.985Z,30.55
2017-10-18T09:31:44.528Z,27.60
2017-10-18T09:32:50.287Z,27.50
2017-10-18T09:33:56.074Z,27.55
2017-10-18T09:35:01.856Z,27.55
2017-10-18T09:36:07.624Z,28.15
2017-10-18T09:37:13.396Z,26.35
2017-10-18T09:38:19.219Z,27.30
2017-10-18T09:39:24.726Z,26.10
2017-10-18T09:40:31.445Z,29.30
2017-10-18T09:41:37.149Z,27.58
2017-10-18T09:42:43.069Z,26.58
2017-10-18T09:43:49.846Z,26.55
2017-10-18T09:44:55.790Z,28.12
2017-10-18T09:46:02.421Z,27.70
2017-10-18T09:47:08.123Z,26.33
2017-10-18T09:48:13.931Z,27.80
2017-10-18T09:49:19.877Z,27.58
2017-10-18T09:50:26.547Z,27.05
2017-10-18T09:51:32.769Z,27.37
2017-10-18T09:52:39.380Z,28.73
2017-10-18T09:53:45.236Z,28.55
2017-10-18T09:54:51.041Z,28.08
2017-10-18T09:55:57.600Z,27.80
2017-10-18T09:57:04.049Z,26.70
2017-10-18T09:58:09.891Z,29.77
2017-10-18T09:59:16.232Z,29.10
2017-10-18T10:00:22.801Z,28.17
2017-10-18T10:01:28.691Z,29.00
2017-10-18T10:02:34.616Z,27.45
2017-10-18T10:03:41.168Z,29.33
2017-10-18T10:04:47.711Z,30.55
2017-10-18T10:05:54.268Z,29.27
2017-10-18T10:07:00.260Z,29.80
2017-10-18T10:08:06.213Z,29.83
2017-10-18T10:09:12.001Z,28.20
2017-10-18T10:10:17.773Z,29.35
2017-10-18T10:11:25.865Z,29.70
2017-10-18T10:12:32.448Z,29.35
2017-10-18T10:13:38.394Z,29.90
2017-10-18T10:14:44.435Z,29.80
2017-10-18T10:15:50.961Z,31.08
2017-10-18T10:16:56.776Z,29.90
2017-10-18T10:18:02.559Z,27.90
2017-10-18T10:19:08.966Z,28.98
2017-10-18T10:20:14.788Z,28.70
2017-10-18T10:21:20.736Z,30.12
2017-10-18T10:22:26.632Z,29.40
2017-10-18T10:23:33.278Z,29.70
2017-10-18T10:24:39.132Z,32.15
2017-10-18T10:25:45.030Z,32.90
2017-10-18T10:26:51.044Z,31.05
2017-10-18T10:27:57.024Z,33.85
2017-10-18T10:29:02.931Z,31.02
2017-10-18T10:30:09.874Z,30.25
2017-10-18T10:31:15.767Z,29.98
2017-10-18T10:32:22.343Z,31.20
2017-10-18T10:33:28.278Z,30.40
2017-10-18T10:34:34.179Z,33.90
2017-10-18T10:35:40.065Z,31.95
2017-10-18T10:36:46.946Z,32.40
2017-10-18T10:37:52.976Z,31.92
2017-10-18T10:38:59.577Z,32.85
2017-10-18T10:40:05.347Z,31.60
2017-10-18T10:41:11.137Z,31.90
2017-10-18T10:42:16.936Z,30.45
2017-10-18T10:43:22.773Z,33.67
2017-10-18T10:44:28.535Z,31.70
2017-10-18T10:45:35.112Z,30.23
2017-10-18T10:46:41.998Z,30.73
2017-10-18T10:47:48.217Z,32.35
2017-10-18T10:48:54.763Z,32.00
2017-10-18T10:50:00.599Z,33.78
2017-10-18T10:51:06.356Z,33.15
2017-10-18T10:52:12.177Z,30.35
2017-10-18T10:53:18.074Z,31.35
2017-10-18T10:54:23.921Z,32.13
2017-10-18T10:55:29.688Z,33.55
2017-10-18T10:56:35.509Z,34.08
2017-10-18T10:57:41.316Z,33.58
2017-10-18T10:58:47.848Z,32.30
2017-10-18T10:59:53.632Z,33.08
2017-10-18T11:01:00.242Z,33.85
2017-10-18T11:02:05.992Z,33.72
2017-10-18T11:03:11.820Z,33.47
2017-10-18T11:04:17.606Z,33.75
2017-10-18T11:05:23.372Z,34.25
2017-10-18T11:06:29.921Z,34.92
2017-10-18T11:07:36.454Z,35.75
2017-10-18T11:08:42.320Z,33.88
2017-10-18T11:09:48.912Z,37.00
2017-10-18T11:10:54.739Z,34.70
2017-10-18T11:12:00.529Z,35.50
2017-10-18T11:13:06.288Z,35.70
2017-10-18T11:14:12.077Z,34.65
2017-10-18T11:15:17.866Z,34.80
2017-10-18T11:16:23.645Z,35.45
2017-10-18T11:17:30.192Z,33.90
2017-10-18T11:18:36.717Z,34.88
2017-10-18T11:19:42.530Z,35.17
2017-10-18T11:20:48.295Z,34.38
2017-10-18T11:21:54.078Z,35.40
2017-10-18T11:23:00.653Z,36.08
2017-10-18T11:24:06.104Z,35.58
2017-10-18T11:25:11.708Z,35.65
2017-10-18T11:26:18.250Z,36.17
2017-10-18T11:27:24.013Z,35.65
2017-10-18T11:28:30.565Z,36.95
2017-10-18T11:29:37.097Z,35.33
2017-10-18T11:30:42.885Z,37.65
2017-10-18T11:31:49.417Z,34.67
2017-10-18T11:32:55.286Z,36.30
2017-10-18T11:34:01.070Z,35.85
2017-10-18T11:35:06.894Z,35.78
2017-10-18T11:36:12.698Z,36.33
2017-10-18T11:37:19.227Z,36.20
2017-10-18T11:38:24.996Z,37.03
2017-10-18T11:39:30.790Z,36.10
2017-10-18T11:40:36.560Z,36.45
2017-10-18T11:41:42.349Z,35.45
2017-10-18T11:42:48.118Z,36.92
2017-10-18T11:43:54.225Z,35.55
2017-10-18T11:45:00.762Z,37.15
2017-10-18T11:46:06.537Z,34.58
2017-10-18T11:47:13.264Z,34.97
2017-10-18T11:48:19.148Z,36.72
2017-10-18T11:49:25.689Z,36.03
2017-10-18T11:50:32.257Z,36.40
2017-10-18T11:51:38.796Z,34.85
2017-10-18T11:52:44.587Z,36.53
2017-10-18T11:53:50.526Z,34.00
2017-10-18T11:54:56.409Z,34.75
2017-10-18T11:56:02.181Z,37.08
2017-10-18T11:57:08.072Z,36.63
2017-10-18T11:58:13.861Z,37.53
2017-10-18T11:59:19.440Z,37.72
2017-10-18T12:00:25.387Z,37.70
2017-10-18T12:01:31.196Z,37.10
2017-10-18T12:02:37.728Z,37.80
2017-10-18T12:03:43.522Z,38.10
2017-10-18T12:04:49.125Z,37.72
2017-10-18T12:05:54.906Z,35.42
2017-10-18T12:07:00.669Z,37.78
2017-10-18T12:08:06.500Z,35.55
2017-10-18T12:09:12.337Z,36.00
2017-10-18T12:10:18.204Z,37.58
2017-10-18T12:11:24.072Z,39.05
2017-10-18T12:12:29.848Z,38.50
2017-10-18T12:13:36.432Z,41.08
2017-10-18T12:14:42.276Z,40.25
2017-10-18T12:15:48.119Z,41.13
2017-10-18T12:16:54.836Z,42.28
2017-10-18T12:18:01.692Z,40.03
2017-10-18T12:19:08.270Z,37.10
2017-10-18T12:20:14.112Z,38.97
2017-10-18T12:21:19.940Z,40.05
2017-10-18T12:22:25.824Z,39.05
2017-10-18T12:23:32.432Z,39.28
2017-10-18T12:24:38.216Z,38.67
2017-10-18T12:25:44.772Z,39.72
2017-10-18T12:26:51.314Z,39.85
2017-10-18T12:27:57.093Z,40.25
2017-10-18T12:29:02.862Z,38.28
2017-10-18T12:30:08.658Z,39.55
2017-10-18T12:31:15.258Z,40.42
2017-10-18T12:32:21.107Z,42.15
2017-10-18T12:33:26.899Z,40.88
2017-10-18T12:34:33.469Z,39.47
2017-10-18T12:35:40.041Z,39.35
2017-10-18T12:36:46.601Z,42.22
2017-10-18T12:37:53.325Z,41.85
2017-10-18T12:38:59.108Z,40.90
2017-10-18T12:40:05.058Z,40.72
2017-10-18T12:41:11.010Z,40.42
2017-10-18T12:42:17.653Z,42.10
2017-10-18T12:43:24.244Z,42.45
2017-10-18T12:44:30.122Z,41.55
2017-10-18T12:45:35.888Z,41.20
2017-10-18T12:46:41.652Z,40.97
2017-10-18T12:47:48.261Z,37.67
2017-10-18T12:48:54.021Z,41.97
2017-10-18T12:49:59.802Z,41.13
2017-10-18T12:51:06.337Z,41.17
2017-10-18T12:52:12.217Z,41.80
2017-10-18T12:53:18.231Z,43.03
2017-10-18T12:54:24.090Z,41.60
2017-10-18T12:55:30.748Z,41.75
2017-10-18T12:56:37.537Z,39.78
2017-10-18T12:57:43.485Z,39.75
2017-10-18T12:58:49.430Z,40.83
2017-10-18T12:59:56.094Z,40.65
2017-10-18T13:01:02.009Z,42.00
2017-10-18T13:02:07.897Z,41.20
2017-10-18T13:03:14.250Z,42.13
2017-10-18T13:04:20.133Z,41.97
2017-10-18T13:05:26.026Z,43.53
2017-10-18T13:06:31.938Z,41.33
2017-10-18T13:07:37.917Z,42.88
2017-10-18T13:08:43.778Z,43.95
2017-10-18T13:09:49.622Z,44.20
2017-10-18T13:10:55.494Z,40.92
2017-10-18T13:12:01.475Z,44.47
2017-10-18T13:13:08.072Z,43.72
2017-10-18T13:14:13.713Z,44.20
2017-10-18T13:15:19.652Z,43.97
2017-10-18T13:16:25.680Z,44.40
2017-10-18T13:17:31.575Z,43.20
2017-10-18T13:18:37.360Z,44.30
2017-10-18T13:19:44.034Z,43.85
2017-10-18T13:20:50.048Z,44.10
2017-10-18T13:21:55.916Z,41.25
2017-10-18T13:23:02.693Z,42.72
2017-10-18T13:24:08.821Z,43.28
2017-10-18T13:25:15.475Z,45.17
2017-10-18T13:26:22.204Z,45.03
2017-10-18T13:27:29.437Z,44.55
2017-10-18T13:28:36.127Z,44.22
2017-10-18T13:29:41.992Z,44.60
2017-10-18T13:30:47.928Z,43.20
2017-10-18T13:31:53.797Z,43.28
2017-10-18T13:33:01.201Z,42.75
2017-10-18T13:34:07.885Z,42.28
2017-10-18T13:35:13.809Z,42.53
2017-10-18T13:36:20.498Z,43.05
2017-10-18T13:37:26.293Z,43.60
2017-10-18T13:38:32.277Z,42.97
2017-10-18T13:39:38.160Z,43.67
2017-10-18T13:40:44.134Z,45.65
2017-10-18T13:41:50.860Z,43.70
2017-10-18T13:42:56.852Z,43.08
2017-10-18T13:44:03.569Z,44.95
2017-10-18T13:45:09.417Z,44.85
2017-10-18T13:46:15.244Z,41.95
2017-10-18T13:47:21.111Z,45.72
2017-10-18T13:48:28.566Z,43.80
2017-10-18T13:49:34.512Z,44.28
2017-10-18T13:50:40.648Z,42.15
2017-10-18T13:51:46.524Z,42.42
2017-10-18T13:52:53.157Z,42.83
2017-10-18T13:53:59.211Z,39.72
2017-10-18T13:55:04.979Z,41.55
2017-10-18T13:56:10.773Z,43.20
2017-10-18T13:57:17.385Z,42.85
2017-10-18T13:58:23.216Z,42.28
2017-10-18T13:59:29.157Z,43.53
2017-10-18T14:00:35.038Z,42.17
2017-10-18T14:01:41.710Z,43.42
2017-10-18T14:02:47.745Z,43.87
2017-10-18T14:03:54.435Z,41.22
2017-10-18T14:05:00.518Z,41.25
2017-10-18T14:06:06.560Z,43.30
2017-10-18T14:07:13.333Z,41.05
2017-10-18T14:08:19.073Z,40.97
2017-10-18T14:09:24.712Z,41.65
2017-10-18T14:10:31.454Z,42.42
2017-10-18T14:11:37.422Z,41.53
2017-10-18T14:12:44.495Z,38.50